Flight Track Log - Related Links

Times and Time Zones

All times are in EDT time to prevent confusion due to time zone crossing. See the TAM3719 flight status page for this flight to view local times or setup timezone preferences in your user account.

Time Position Orientation Groundspeed Altitude Reporting Facility
EDT Latitude Longitude Course Direction KTS MPH feet Rate Location/Type
Mon 04:27:17 AM -15.8690 -47.9190 340° North 10 12  Level FlightAware ADS-B
Mon 04:30:57 AM -15.8690 -47.9170 90° East 31 36 429 Level FlightAware ADS-B
Mon 04:31:28 AM -15.8680 -47.9160 44° Northeast 28 32 733 Level FlightAware ADS-B
Mon 04:31:55 AM -15.8660 -47.9160 360° North 16 18 814 Level FlightAware ADS-B
Mon 04:32:23 AM -15.8650 -47.9170 316° Northwest 27 31 901 Level FlightAware ADS-B
Mon 04:32:49 AM -15.8650 -47.9190 270° West 19 22 1,013 Level FlightAware ADS-B
Mon 04:33:15 AM -15.8650 -47.9210 270° West 21 24 1,146 Level FlightAware ADS-B
Mon 04:33:47 AM -15.8650 -47.9240 270° West 23 26 1,318 Level FlightAware ADS-B
Mon 04:34:15 AM -15.8650 -47.9270 270° West 17 20 1,617 Level FlightAware ADS-B
Mon 04:34:37 AM -15.8650 -47.9280 270° West 30 35 2,018 Level FlightAware ADS-B
Mon 04:35:08 AM -15.8640 -47.9270 44° Northeast 11 13 2,505 Level FlightAware ADS-B
Mon 04:35:37 AM -15.8630 -47.9190 83° East 120 138 3,800 Level FlightAware ADS-B
Mon 04:36:08 AM -15.8620 -47.8960 87° East 164 189 3,800 5,520 Climbing FlightAware ADS-B
Mon 04:36:27 AM -15.8610 -47.8810 86° East 161 185 4,600 2,298 Climbing FlightAware ADS-B
Mon 04:36:55 AM -15.8610 -47.8590 90° East 156 180 5,600 1,543 Climbing FlightAware ADS-B
Mon 04:37:37 AM -15.8730 -47.8310 114° Southeast 194 223 6,400 1,154 Climbing FlightAware ADS-B
Mon 04:37:47 AM -15.8820 -47.8300 174° South 211 243 6,600 1,050 Climbing FlightAware ADS-B
Mon 04:38:17 AM -15.9160 -47.8340 186° South 259 298 7,100 1,322 Climbing FlightAware ADS-B
Mon 04:38:46 AM -15.9530 -47.8390 187° South 290 334 7,900 2,571 Climbing FlightAware ADS-B
Mon 04:39:13 AM -15.9890 -47.8430 186° South 283 326 9,500 2,384 Climbing FlightAware ADS-B
Mon 04:39:59 AM -16.0520 -47.8500 186° South 324 373 10,800 1,857 Climbing FlightAware ADS-B
Mon 04:40:37 AM -16.1120 -47.8570 186° South 346 398 12,100 2,308 Climbing FlightAware ADS-B
Mon 04:41:17 AM -16.1770 -47.8640 186° South 354 407 13,800 2,325 Climbing FlightAware ADS-B
Mon 04:41:57 AM -16.2430 -47.8710 186° South 368 423 15,200 2,222 Climbing FlightAware ADS-B
Mon 04:42:38 AM -16.3120 -47.8790 186° South 369 425 16,800 2,203 Climbing FlightAware ADS-B
Mon 04:43:16 AM -16.3790 -47.8860 186° South 376 433 18,100 2,077 Climbing FlightAware ADS-B
Mon 04:43:56 AM -16.4480 -47.8940 186° South 377 434 19,500 1,768 Climbing FlightAware ADS-B
Mon 04:44:51 AM -16.5390 -47.9040 186° South 382 440 20,900 1,604 Climbing FlightAware ADS-B
Mon 04:45:37 AM -16.6270 -47.9070 182° South 396 456 22,200 1,620 Climbing FlightAware ADS-B
Mon 04:46:31 AM -16.7230 -47.9100 182° South 396 456 23,600 884 Climbing FlightAware ADS-B
Mon 04:47:12 AM -16.7870 -47.9110 181° South 396 456 23,600  Level FlightAware ADS-B
Mon 04:48:01 AM -16.8630 -47.9130 181° South 396 456 23,600  Level FlightAware ADS-B
Mon 04:48:37 AM -16.9200 -47.9140 181° South 396 456 23,600  Level FlightAware ADS-B
Mon 04:49:25 AM -16.9940 -47.9150 181° South 396 456 23,600  Level FlightAware ADS-B
Mon 04:50:01 AM -17.0500 -47.9160 181° South 396 456 23,600 3,231 Level FlightAware ADS-B
Mon 04:51:22 AM -17.3060 -47.9360 184° South 443 510 29,900 3,415 Climbing FlightAware ADS-B
Mon 04:52:04 AM -17.3920 -47.9390 182° South 448 516 30,600 1,013 Climbing FlightAware ADS-B
Mon 04:52:39 AM -17.4630 -47.9420 182° South 449 517 31,200 1,275 Climbing FlightAware ADS-B
Mon 04:53:24 AM -17.5600 -47.9470 183° South 446 513 32,300 1,390 Climbing FlightAware ADS-B
Mon 04:54:01 AM -17.6330 -47.9500 182° South 441 507 33,100 1,214 Climbing FlightAware ADS-B
Mon 04:54:48 AM -17.7330 -47.9540 182° South 441 507 34,000 1,241 Climbing FlightAware ADS-B
Mon 04:55:28 AM -17.8130 -47.9580 183° South 435 501 34,900 1,071 Climbing FlightAware ADS-B
Mon 04:56:12 AM -17.9030 -47.9620 182° South 440 506 35,500 907 Climbing FlightAware ADS-B
Mon 04:56:54 AM -17.9870 -47.9660 183° South 436 502 36,200 868 Climbing FlightAware ADS-B
Mon 04:57:28 AM -18.0570 -47.9690 182° South 436 502 36,600 846 Climbing FlightAware ADS-B
Mon 04:58:12 AM -18.1450 -47.9730 182° South 432 497 37,300 714 Climbing FlightAware ADS-B
Mon 04:58:52 AM -18.2260 -47.9760 182° South 435 501 37,600 553 Climbing FlightAware ADS-B
Mon 04:59:28 AM -18.2980 -47.9790 182° South 434 499 38,000 333 Climbing FlightAware ADS-B
Mon 05:00:04 AM -18.3710 -47.9830 183° South 430 495 38,000  Level FlightAware ADS-B
Mon 05:00:52 AM -18.4660 -47.9870 182° South 428 493 38,000  Level FlightAware ADS-B
Mon 05:01:32 AM -18.5440 -47.9900 182° South 428 493 38,000  Level FlightAware ADS-B
Mon 05:02:14 AM -18.6280 -47.9940 183° South 430 495 38,000  Level FlightAware ADS-B
Mon 05:02:58 AM -18.7150 -47.9980 182° South 430 495 38,000  Level FlightAware ADS-B
Mon 05:03:37 AM -18.7920 -48.0010 182° South 429 494 38,000  Level FlightAware ADS-B
Mon 05:04:18 AM -18.8740 -48.0050 183° South 428 493 38,000  Level FlightAware ADS-B
Mon 05:04:56 AM -18.9510 -48.0090 183° South 426 490 38,000  Level FlightAware ADS-B
Mon 05:05:32 AM -19.0210 -48.0120 182° South 425 489 38,000  Level FlightAware ADS-B
Mon 05:06:18 AM -19.1110 -48.0160 182° South 424 488 38,000  Level FlightAware ADS-B
Mon 05:06:54 AM -19.1830 -48.0190 182° South 424 488 38,000  Level FlightAware ADS-B
Mon 05:07:34 AM -19.2620 -48.0220 182° South 423 487 38,000  Level FlightAware ADS-B
Mon 05:08:14 AM -19.3390 -48.0260 183° South 423 487 38,000  Level FlightAware ADS-B
Mon 05:08:54 AM -19.4180 -48.0290 182° South 424 488 38,000  Level FlightAware ADS-B
Mon 05:09:34 AM -19.4970 -48.0330 183° South 424 488 38,000  Level FlightAware ADS-B
Mon 05:10:14 AM -19.5760 -48.0370 183° South 425 489 38,000  Level FlightAware ADS-B
Mon 05:10:58 AM -19.6610 -48.0400 182° South 425 489 38,000  Level FlightAware ADS-B
Mon 05:11:40 AM -19.7460 -48.0440 183° South 425 489 38,000  Level FlightAware ADS-B
Mon 05:12:24 AM -19.8310 -48.0480 183° South 424 488 38,000  Level FlightAware ADS-B
Mon 05:13:04 AM -19.9100 -48.0520 183° South 424 488 38,000  Level FlightAware ADS-B
Mon 05:13:46 AM -19.9930 -48.0550 182° South 425 489 38,000  Level FlightAware ADS-B
Mon 05:14:30 AM -20.0810 -48.0590 182° South 425 489 38,000  Level FlightAware ADS-B
Mon 05:14:54 AM -20.1270 -48.0620 184° South 425 489 38,000  Level FlightAware ADS-B
Mon 05:16:00 AM -20.2580 -48.0670 182° South 425 489 38,000  Level FlightAware ADS-B
Mon 05:16:38 AM -20.3310 -48.0710 183° South 424 488 38,000  Level FlightAware ADS-B
Mon 05:17:22 AM -20.4200 -48.0750 182° South 425 489 38,000  Level FlightAware ADS-B
Mon 05:18:06 AM -20.5050 -48.0790 183° South 426 490 38,000  Level FlightAware ADS-B
Mon 05:18:46 AM -20.5850 -48.0820 182° South 426 490 38,000  Level FlightAware ADS-B
Mon 05:19:31 AM -20.6700 -48.0860 183° South 426 490 38,000  Level FlightAware ADS-B
Mon 05:20:08 AM -20.7450 -48.0900 183° South 426 490 38,000  Level FlightAware ADS-B
Mon 05:20:55 AM -20.8360 -48.0940 182° South 425 489 38,000  Level FlightAware ADS-B
Mon 05:21:33 AM -20.9110 -48.0970 182° South 425 489 38,000  Level FlightAware ADS-B
Mon 05:22:16 AM -20.9970 -48.1010 182° South 425 489 38,000  Level FlightAware ADS-B
Mon 05:22:58 AM -21.0800 -48.1050 183° South 424 488 38,000  Level FlightAware ADS-B
Mon 05:23:38 AM -21.1580 -48.1090 183° South 424 488 38,000  Level FlightAware ADS-B
Mon 05:24:24 AM -21.2480 -48.0990 174° South 436 502 38,000  Level FlightAware ADS-B
Mon 05:25:06 AM -21.3300 -48.0750 165° South 434 499 38,000  Level FlightAware ADS-B
Mon 05:25:40 AM -21.3960 -48.0560 165° South 433 498 38,000  Level FlightAware ADS-B
Mon 05:26:24 AM -21.4810 -48.0310 165° South 433 498 38,000  Level FlightAware ADS-B
Mon 05:27:04 AM -21.5590 -48.0090 165° South 432 497 38,000  Level FlightAware ADS-B
Mon 05:27:48 AM -21.6440 -47.9840 165° South 432 497 38,000  Level FlightAware ADS-B
Mon 05:28:29 AM -21.7230 -47.9610 165° South 432 497 38,000  Level FlightAware ADS-B
Mon 05:29:12 AM -21.8060 -47.9360 164° South 434 499 38,000  Level FlightAware ADS-B
Mon 05:29:48 AM -21.8780 -47.9150 165° South 434 499 38,000 -632 Level FlightAware ADS-B
Mon 05:30:28 AM -21.9540 -47.8930 165° South 440 506 37,200 -1,778 Descending FlightAware ADS-B
Mon 05:31:09 AM -22.0330 -47.8700 165° South 435 501 35,600 -2,329 Descending FlightAware ADS-B
Mon 05:31:53 AM -22.1150 -47.8460 165° South 430 495 33,900 -2,338 Descending FlightAware ADS-B
Mon 05:32:26 AM -22.1830 -47.8260 165° South 425 489 32,600 -2,240 Descending FlightAware ADS-B
Mon 05:33:08 AM -22.2630 -47.8020 164° South 420 483 31,100 -2,169 Descending FlightAware ADS-B
Mon 05:33:49 AM -22.3400 -47.7790 165° South 414 476 29,600 -2,188 Descending FlightAware ADS-B
Mon 05:34:33 AM -22.4210 -47.7550 165° South 409 471 28,000 -2,138 Descending FlightAware ADS-B
Mon 05:35:16 AM -22.4970 -47.7330 165° South 405 466 26,500 -2,100 Descending FlightAware ADS-B
Mon 05:35:53 AM -22.5640 -47.7130 165° South 400 460 25,200 -2,169 Descending FlightAware ADS-B
Mon 05:36:39 AM -22.6470 -47.6880 164° South 392 451 23,500 -2,084 Descending FlightAware ADS-B
Mon 05:37:28 AM -22.7200 -47.6380 148° Southeast 390 449 21,900 -1,955 Descending FlightAware ADS-B
Mon 05:38:08 AM -22.7740 -47.5870 139° Southeast 385 443 20,600 -2,047 Descending FlightAware ADS-B
Mon 05:38:53 AM -22.8350 -47.5310 140° Southeast 378 435 19,000 -2,640 Descending FlightAware ADS-B
Mon 05:39:23 AM -22.8750 -47.4940 140° Southeast 389 448 17,300 -2,211 Descending FlightAware ADS-B
Mon 05:40:09 AM -22.9370 -47.4360 139° Southeast 362 417 16,200 -1,694 Descending FlightAware ADS-B
Mon 05:40:48 AM -22.9860 -47.3910 140° Southeast 358 412 14,900 -2,071 Descending FlightAware ADS-B
Mon 05:41:33 AM -23.0420 -47.3390 139° Southeast 346 398 13,300 -1,906 Descending FlightAware ADS-B
Mon 05:42:13 AM -23.0920 -47.2930 140° Southeast 340 391 12,200 -1,171 Descending FlightAware ADS-B
Mon 05:42:55 AM -23.1400 -47.2480 139° Southeast 309 356 11,700 -714 Descending FlightAware ADS-B
Mon 05:43:37 AM -23.1840 -47.2070 139° Southeast 284 327 11,200 -1,024 Descending FlightAware ADS-B
Mon 05:44:17 AM -23.2240 -47.1700 140° Southeast 280 322 10,300 -1,219 Descending FlightAware ADS-B
Mon 05:44:41 AM -23.2460 -47.1490 139° Southeast 271 312 9,900 -667 Descending FlightAware ADS-B
Mon 05:45:29 AM -23.2820 -47.1160 140° Southeast 300 345 9,500 -857 Descending FlightAware ADS-B
Mon 05:46:05 AM -23.3220 -47.0800 140° Southeast 240 276 8,700 -1,254 Descending FlightAware ADS-B
Mon 05:46:36 AM -23.3470 -47.0570 140° Southeast 236 272 8,100 -1,143 Descending FlightAware ADS-B
Mon 05:46:47 AM -23.3570 -47.0480 140° Southeast 235 270 7,900 -1,021 Descending FlightAware ADS-B
Mon 05:47:23 AM -23.3860 -47.0200 138° Southeast 235 270 7,300 -1,031 Descending FlightAware ADS-B
Mon 05:47:51 AM -23.4090 -46.9980 139° Southeast 233 268 6,800 -1,038 Descending FlightAware ADS-B
Mon 05:48:15 AM -23.4280 -46.9800 139° Southeast 228 262 6,400 -1,050 Descending FlightAware ADS-B
Mon 05:48:31 AM -23.4400 -46.9680 137° Southeast 225 259 6,100 -667 Descending FlightAware ADS-B
Mon 05:49:00 AM -23.4620 -46.9470 139° Southeast 209 241 5,900 -429 Descending FlightAware ADS-B
Mon 05:49:27 AM -23.4820 -46.9280 139° Southeast 206 237 5,700 -308 Descending FlightAware ADS-B
Mon 05:49:39 AM -23.4880 -46.9160 119° Southeast 212 244 5,700 -273 Level FlightAware ADS-B
Mon 05:50:11 AM -23.4860 -46.8830 86° East 204 235 5,500 -300 Descending FlightAware ADS-B
Mon 05:50:39 AM -23.4840 -46.8550 86° East 192 221 5,400 -211 Descending FlightAware ADS-B
Mon 05:51:08 AM -23.4820 -46.8280 85° East 191 220 5,300 -250 Descending FlightAware ADS-B
Mon 05:51:27 AM -23.4810 -46.8090 87° East 193 222 5,200 -245 Descending FlightAware ADS-B
Mon 05:51:57 AM -23.4800 -46.7790 88° East 193 222 5,100 -171 Descending FlightAware ADS-B
Mon 05:52:37 AM -23.4930 -46.7480 115° Southeast 185 213 5,000 -353 Descending FlightAware ADS-B
Mon 05:53:05 AM -23.5130 -46.7350 149° Southeast 170 196 4,700 -638 Descending FlightAware ADS-B
Mon 05:53:24 AM -23.5250 -46.7270 149° Southeast 160 184 4,500 -875 Descending FlightAware ADS-B
Mon 05:53:53 AM -23.5420 -46.7150 147° Southeast 141 162 4,000 -787 Descending FlightAware ADS-B
Mon 05:54:25 AM -23.5590 -46.7030 147° Southeast 134 154 3,700 -600 Descending FlightAware ADS-B
Mon 05:54:53 AM -23.5740 -46.6930 149° Southeast 132 152 3,400 -692 Descending FlightAware ADS-B
Mon 05:55:17 AM -23.5860 -46.6850 149° Southeast 130 150 3,100 -750 Descending FlightAware ADS-B
Mon 05:55:41 AM -23.5980 -46.6760 146° Southeast 131 151 2,800 -692 Descending FlightAware ADS-B
Mon 05:56:09 AM -23.6120 -46.6660 147° Southeast 134 154 2,500 -453 Descending FlightAware ADS-B
Mon 05:56:34 AM -23.6180 -46.6630 155° Southeast 135 155 2,400 -240 Descending FlightAware ADS-B
Mon 05:57:19 AM -23.6180 -46.6440 90° East 135 155 -3,200 Descending FlightAware ADS-B
Mon 05:58:08 AM -23.6300 -46.6550 220° Southwest  Level FlightAware ADS-B
Mon 05:58:40 AM -23.6270 -46.6570 329° Northwest  Level FlightAware ADS-B
Mon 05:59:04 AM -23.6260 -46.6580 318° Northwest  Level FlightAware ADS-B
Mon 05:59:37 AM -23.6250 -46.6590 318° Northwest  Level FlightAware ADS-B
Mon 06:00:34 AM -23.6250 -46.6600 270° West  Level FlightAware ADS-B
Mon 06:03:00 AM -23.6267 -46.6554 112° Southeast  Level Estimated
Mon 06:04:00 AM -23.6267 -46.6554 114° Southeast  Level Estimated
Mon 06:05:00 AM -23.6267 -46.6554 114° Southeast  Level Estimated

Login

Don't have an account? Register now (free) for customized features, flight alerts, and more!